< < Back
Terminal Aerodrome Forecast


Current Version              Previous Versions:   1  2  3  4  5  6  7  8  9  

Terminal Aerodrome Forecast

315
FTUS42 KJAX 301120
TAFSSI
TAF
KSSI 301120Z 3012/3112 28005KT P6SM VCSH SCT060 BKN080
     FM301400 28007KT P6SM VCSH SCT060 SCT080
     FM302100 18009KT P6SM SCT050 SCT100=

Latest METAR

443
SAUS70 KWBC 301600 RRC
MTRSSI
METAR KSSI 301553Z AUTO 29008KT 10SM FEW050 29/18 A2998 RMK AO2 SLP152
T02940178


USA.gov is the U.S. government's official web portal to all federal, state and local government web resources and services.